Terminal Aerodrome Forecast
Issued by NWS Charleston, WV

Current Version | Previous Version | Graphics & Text | Print | Product List | Glossary On
Versions: 1 2 3 4 5 6 7 8 9 10 11 12 13 14 15 16 17 18 19 20 21 22 23
000
FTUS41 KRLX 040841 AAA
TAFCRW
TAF AMD
KCRW 040841Z 0409/0506 00000KT P6SM SCT050
     FM041200 00000KT P6SM SCT015
     FM041600 00000KT P6SM SCT025
     FM042000 27006KT P6SM SCT035
     FM050000 VRB03KT P6SM BKN060=

USA.gov is the U.S. government's official web portal to all federal, state and local government web resources and services.